sensor_id;sensor_type;location;lat;lon;timestamp;temperature;humidity
52167;DHT22;38149;52.666;6.428;2022-07-24T00:01:39;19.20;99.90
52167;DHT22;38149;52.666;6.428;2022-07-24T00:04:05;19.20;99.90
52167;DHT22;38149;52.666;6.428;2022-07-24T00:06:32;19.20;99.90
52167;DHT22;38149;52.666;6.428;2022-07-24T00:08:57;19.10;99.90
52167;DHT22;38149;52.666;6.428;2022-07-24T00:11:23;19.10;99.90
52167;DHT22;38149;52.666;6.428;2022-07-24T00:13:49;19.10;99.90
52167;DHT22;38149;52.666;6.428;2022-07-24T00:16:15;19.00;99.90
52167;DHT22;38149;52.666;6.428;2022-07-24T00:18:41;19.00;99.90
52167;DHT22;38149;52.666;6.428;2022-07-24T00:21:06;19.10;99.90
52167;DHT22;38149;52.666;6.428;2022-07-24T00:23:32;19.00;99.90
52167;DHT22;38149;52.666;6.428;2022-07-24T00:25:58;18.90;99.90
52167;DHT22;38149;52.666;6.428;2022-07-24T00:28:24;18.90;99.90
52167;DHT22;38149;52.666;6.428;2022-07-24T00:30:49;18.90;99.90
52167;DHT22;38149;52.666;6.428;2022-07-24T00:33:15;19.00;99.90
52167;DHT22;38149;52.666;6.428;2022-07-24T00:35:41;19.00;99.90
52167;DHT22;38149;52.666;6.428;2022-07-24T00:38:07;18.80;99.90
52167;DHT22;38149;52.666;6.428;2022-07-24T00:40:33;18.80;99.90
52167;DHT22;38149;52.666;6.428;2022-07-24T00:42:59;18.80;99.90
52167;DHT22;38149;52.666;6.428;2022-07-24T00:45:26;18.70;99.90
52167;DHT22;38149;52.666;6.428;2022-07-24T00:52:45;18.80;99.90
52167;DHT22;38149;52.666;6.428;2022-07-24T00:57:38;18.70;99.90
52167;DHT22;38149;52.666;6.428;2022-07-24T01:02:33;18.70;99.90
52167;DHT22;38149;52.666;6.428;2022-07-24T01:07:25;18.50;99.90
52167;DHT22;38149;52.666;6.428;2022-07-24T01:09:52;18.50;99.90
52167;DHT22;38149;52.666;6.428;2022-07-24T01:12:18;18.60;99.90
52167;DHT22;38149;52.666;6.428;2022-07-24T01:14:44;18.70;99.90
52167;DHT22;38149;52.666;6.428;2022-07-24T01:17:10;18.50;99.90
52167;DHT22;38149;52.666;6.428;2022-07-24T01:19:36;18.20;99.90
52167;DHT22;38149;52.666;6.428;2022-07-24T01:22:02;18.40;99.90
52167;DHT22;38149;52.666;6.428;2022-07-24T01:24:30;18.50;99.90
52167;DHT22;38149;52.666;6.428;2022-07-24T01:26:56;18.50;99.90
52167;DHT22;38149;52.666;6.428;2022-07-24T01:29:21;18.50;99.90
52167;DHT22;38149;52.666;6.428;2022-07-24T01:31:47;18.30;99.90
52167;DHT22;38149;52.666;6.428;2022-07-24T01:34:13;18.20;99.90
52167;DHT22;38149;52.666;6.428;2022-07-24T01:36:39;18.50;99.90
52167;DHT22;38149;52.666;6.428;2022-07-24T01:39:05;19.00;99.90
52167;DHT22;38149;52.666;6.428;2022-07-24T01:41:31;18.40;99.90
52167;DHT22;38149;52.666;6.428;2022-07-24T01:43:57;18.20;99.90
52167;DHT22;38149;52.666;6.428;2022-07-24T01:46:23;18.40;99.90
52167;DHT22;38149;52.666;6.428;2022-07-24T01:48:49;18.50;99.90
52167;DHT22;38149;52.666;6.428;2022-07-24T01:51:15;18.20;99.90
52167;DHT22;38149;52.666;6.428;2022-07-24T01:53:40;18.40;99.90
52167;DHT22;38149;52.666;6.428;2022-07-24T01:56:06;18.30;99.90
52167;DHT22;38149;52.666;6.428;2022-07-24T02:03:25;18.10;99.90
52167;DHT22;38149;52.666;6.428;2022-07-24T02:05:50;18.00;99.90
52167;DHT22;38149;52.666;6.428;2022-07-24T02:08:16;18.00;99.90
52167;DHT22;38149;52.666;6.428;2022-07-24T02:10:42;18.00;99.90
52167;DHT22;38149;52.666;6.428;2022-07-24T02:13:08;18.00;99.90
52167;DHT22;38149;52.666;6.428;2022-07-24T02:15:34;18.00;99.90
52167;DHT22;38149;52.666;6.428;2022-07-24T02:18:01;17.90;99.90
52167;DHT22;38149;52.666;6.428;2022-07-24T02:20:28;18.00;99.90
52167;DHT22;38149;52.666;6.428;2022-07-24T02:22:54;17.90;99.90
52167;DHT22;38149;52.666;6.428;2022-07-24T02:25:21;17.90;99.90
52167;DHT22;38149;52.666;6.428;2022-07-24T02:27:47;18.00;99.90
52167;DHT22;38149;52.666;6.428;2022-07-24T02:30:15;18.00;99.90
52167;DHT22;38149;52.666;6.428;2022-07-24T02:32:42;18.00;99.90
52167;DHT22;38149;52.666;6.428;2022-07-24T02:35:08;18.00;99.90
52167;DHT22;38149;52.666;6.428;2022-07-24T02:37:36;17.70;99.90
52167;DHT22;38149;52.666;6.428;2022-07-24T02:40:04;17.70;99.90
52167;DHT22;38149;52.666;6.428;2022-07-24T02:42:31;17.80;99.90
52167;DHT22;38149;52.666;6.428;2022-07-24T02:44:57;17.80;99.90
52167;DHT22;38149;52.666;6.428;2022-07-24T02:47:23;17.80;99.90
52167;DHT22;38149;52.666;6.428;2022-07-24T02:49:49;17.90;99.90
52167;DHT22;38149;52.666;6.428;2022-07-24T02:52:14;17.80;99.90
52167;DHT22;38149;52.666;6.428;2022-07-24T02:54:40;17.90;99.90
52167;DHT22;38149;52.666;6.428;2022-07-24T02:57:06;17.80;99.90
52167;DHT22;38149;52.666;6.428;2022-07-24T02:59:32;17.60;99.90
52167;DHT22;38149;52.666;6.428;2022-07-24T03:01:58;18.00;99.90
52167;DHT22;38149;52.666;6.428;2022-07-24T03:04:23;17.70;99.90
52167;DHT22;38149;52.666;6.428;2022-07-24T03:06:49;17.70;99.90
52167;DHT22;38149;52.666;6.428;2022-07-24T03:09:15;17.70;99.90
52167;DHT22;38149;52.666;6.428;2022-07-24T03:11:41;17.50;99.90
52167;DHT22;38149;52.666;6.428;2022-07-24T03:14:07;17.60;99.90
52167;DHT22;38149;52.666;6.428;2022-07-24T03:16:32;17.50;99.90
52167;DHT22;38149;52.666;6.428;2022-07-24T03:18:58;17.60;99.90
52167;DHT22;38149;52.666;6.428;2022-07-24T03:21:24;17.40;99.90
52167;DHT22;38149;52.666;6.428;2022-07-24T03:26:15;17.40;99.90
52167;DHT22;38149;52.666;6.428;2022-07-24T03:28:41;17.60;99.90
52167;DHT22;38149;52.666;6.428;2022-07-24T03:31:09;17.40;99.90
52167;DHT22;38149;52.666;6.428;2022-07-24T03:36:03;17.20;99.90
52167;DHT22;38149;52.666;6.428;2022-07-24T03:40:56;17.10;99.90
52167;DHT22;38149;52.666;6.428;2022-07-24T03:43:21;17.20;99.90
52167;DHT22;38149;52.666;6.428;2022-07-24T03:45:47;17.40;99.90
52167;DHT22;38149;52.666;6.428;2022-07-24T03:48:13;16.30;99.90
52167;DHT22;38149;52.666;6.428;2022-07-24T03:50:41;17.30;99.90
52167;DHT22;38149;52.666;6.428;2022-07-24T03:53:07;17.10;99.90
52167;DHT22;38149;52.666;6.428;2022-07-24T03:55:32;17.20;99.90
52167;DHT22;38149;52.666;6.428;2022-07-24T03:57:58;16.80;99.90
52167;DHT22;38149;52.666;6.428;2022-07-24T04:00:24;16.90;99.90
52167;DHT22;38149;52.666;6.428;2022-07-24T04:02:49;17.20;99.90
52167;DHT22;38149;52.666;6.428;2022-07-24T04:05:15;17.30;99.90
52167;DHT22;38149;52.666;6.428;2022-07-24T04:07:41;17.30;99.90
52167;DHT22;38149;52.666;6.428;2022-07-24T04:10:07;17.30;99.90
52167;DHT22;38149;52.666;6.428;2022-07-24T04:12:34;17.20;99.90
52167;DHT22;38149;52.666;6.428;2022-07-24T04:15:00;16.60;99.90
52167;DHT22;38149;52.666;6.428;2022-07-24T04:17:26;17.30;99.90
52167;DHT22;38149;52.666;6.428;2022-07-24T04:19:51;17.00;99.90
52167;DHT22;38149;52.666;6.428;2022-07-24T04:22:17;17.50;99.90
52167;DHT22;38149;52.666;6.428;2022-07-24T04:24:45;17.00;99.90
52167;DHT22;38149;52.666;6.428;2022-07-24T04:27:11;17.20;99.90
52167;DHT22;38149;52.666;6.428;2022-07-24T04:32:04;17.40;99.90
52167;DHT22;38149;52.666;6.428;2022-07-24T04:34:30;17.20;99.90
52167;DHT22;38149;52.666;6.428;2022-07-24T04:36:56;17.60;99.90
52167;DHT22;38149;52.666;6.428;2022-07-24T04:46:43;17.50;99.90
52167;DHT22;38149;52.666;6.428;2022-07-24T04:49:08;17.30;99.90
52167;DHT22;38149;52.666;6.428;2022-07-24T04:51:35;17.20;99.90
52167;DHT22;38149;52.666;6.428;2022-07-24T04:54:01;17.40;99.90
52167;DHT22;38149;52.666;6.428;2022-07-24T04:56:27;17.30;99.90
52167;DHT22;38149;52.666;6.428;2022-07-24T04:58:56;17.30;99.90
52167;DHT22;38149;52.666;6.428;2022-07-24T05:01:22;17.50;99.90
52167;DHT22;38149;52.666;6.428;2022-07-24T05:03:48;17.30;99.90
52167;DHT22;38149;52.666;6.428;2022-07-24T05:06:17;17.40;99.90
52167;DHT22;38149;52.666;6.428;2022-07-24T05:08:43;17.30;99.90
52167;DHT22;38149;52.666;6.428;2022-07-24T05:11:08;17.40;99.90
52167;DHT22;38149;52.666;6.428;2022-07-24T05:16:01;17.40;99.90
52167;DHT22;38149;52.666;6.428;2022-07-24T05:18:27;17.50;99.90
52167;DHT22;38149;52.666;6.428;2022-07-24T05:20:53;17.40;99.90
52167;DHT22;38149;52.666;6.428;2022-07-24T05:28:11;17.30;99.90
52167;DHT22;38149;52.666;6.428;2022-07-24T05:30:37;17.50;99.90
52167;DHT22;38149;52.666;6.428;2022-07-24T05:33:02;17.60;99.90
52167;DHT22;38149;52.666;6.428;2022-07-24T05:35:29;17.60;99.90
52167;DHT22;38149;52.666;6.428;2022-07-24T05:37:55;17.70;99.90
52167;DHT22;38149;52.666;6.428;2022-07-24T05:40:21;17.80;99.90
52167;DHT22;38149;52.666;6.428;2022-07-24T05:42:47;17.80;99.90
52167;DHT22;38149;52.666;6.428;2022-07-24T05:45:12;17.90;99.90
52167;DHT22;38149;52.666;6.428;2022-07-24T05:47:39;17.90;99.90
52167;DHT22;38149;52.666;6.428;2022-07-24T05:50:12;18.00;99.90
52167;DHT22;38149;52.666;6.428;2022-07-24T05:52:39;18.10;99.90
52167;DHT22;38149;52.666;6.428;2022-07-24T05:55:07;18.20;99.90
52167;DHT22;38149;52.666;6.428;2022-07-24T05:57:33;18.20;99.90
52167;DHT22;38149;52.666;6.428;2022-07-24T05:59:59;18.20;99.90
52167;DHT22;38149;52.666;6.428;2022-07-24T06:02:25;18.30;99.90
52167;DHT22;38149;52.666;6.428;2022-07-24T06:04:51;18.30;99.90
52167;DHT22;38149;52.666;6.428;2022-07-24T06:07:17;18.30;99.90
52167;DHT22;38149;52.666;6.428;2022-07-24T06:09:42;18.40;99.90
52167;DHT22;38149;52.666;6.428;2022-07-24T06:12:09;18.40;99.90
52167;DHT22;38149;52.666;6.428;2022-07-24T06:14:34;18.50;99.90
52167;DHT22;38149;52.666;6.428;2022-07-24T06:17:00;18.50;99.90
52167;DHT22;38149;52.666;6.428;2022-07-24T06:19:26;18.60;99.90
52167;DHT22;38149;52.666;6.428;2022-07-24T06:21:52;18.70;99.90
52167;DHT22;38149;52.666;6.428;2022-07-24T06:24:18;18.70;99.90
52167;DHT22;38149;52.666;6.428;2022-07-24T06:26:44;18.80;99.90
52167;DHT22;38149;52.666;6.428;2022-07-24T06:29:10;19.00;99.90
52167;DHT22;38149;52.666;6.428;2022-07-24T06:31:36;18.70;99.90
52167;DHT22;38149;52.666;6.428;2022-07-24T06:34:01;19.20;99.90
52167;DHT22;38149;52.666;6.428;2022-07-24T06:36:27;19.20;99.90
52167;DHT22;38149;52.666;6.428;2022-07-24T06:38:53;19.20;99.90
52167;DHT22;38149;52.666;6.428;2022-07-24T06:41:19;19.30;99.90
52167;DHT22;38149;52.666;6.428;2022-07-24T07:13:03;20.40;99.90
52167;DHT22;38149;52.666;6.428;2022-07-24T07:15:29;19.60;99.90
52167;DHT22;38149;52.666;6.428;2022-07-24T07:17:55;20.40;99.90
52167;DHT22;38149;52.666;6.428;2022-07-24T07:20:21;20.40;99.90
52167;DHT22;38149;52.666;6.428;2022-07-24T07:22:46;20.20;99.90
52167;DHT22;38149;52.666;6.428;2022-07-24T07:25:12;20.60;99.90
52167;DHT22;38149;52.666;6.428;2022-07-24T07:27:41;20.80;99.90
52167;DHT22;38149;52.666;6.428;2022-07-24T07:30:07;20.90;99.90
52167;DHT22;38149;52.666;6.428;2022-07-24T07:32:34;20.70;99.90
52167;DHT22;38149;52.666;6.428;2022-07-24T07:37:28;20.90;99.90
52167;DHT22;38149;52.666;6.428;2022-07-24T07:52:11;21.40;99.90
52167;DHT22;38149;52.666;6.428;2022-07-24T07:54:37;21.40;99.90
52167;DHT22;38149;52.666;6.428;2022-07-24T07:57:03;21.50;99.90
52167;DHT22;38149;52.666;6.428;2022-07-24T08:01:55;21.70;99.90
52167;DHT22;38149;52.666;6.428;2022-07-24T08:04:21;21.80;99.90
52167;DHT22;38149;52.666;6.428;2022-07-24T08:06:47;21.90;99.90
52167;DHT22;38149;52.666;6.428;2022-07-24T08:38:31;23.20;99.90
52167;DHT22;38149;52.666;6.428;2022-07-24T08:40:57;23.20;99.90
52167;DHT22;38149;52.666;6.428;2022-07-24T08:45:49;23.30;99.90
52167;DHT22;38149;52.666;6.428;2022-07-24T08:48:18;23.10;99.90
52167;DHT22;38149;52.666;6.428;2022-07-24T08:50:46;23.50;99.90
52167;DHT22;38149;52.666;6.428;2022-07-24T08:53:12;23.40;99.90
52167;DHT22;38149;52.666;6.428;2022-07-24T08:55:38;23.40;99.90
52167;DHT22;38149;52.666;6.428;2022-07-24T09:00:32;23.60;99.90
52167;DHT22;38149;52.666;6.428;2022-07-24T09:02:58;23.50;99.90
52167;DHT22;38149;52.666;6.428;2022-07-24T09:05:24;23.70;99.90
52167;DHT22;38149;52.666;6.428;2022-07-24T09:07:50;23.80;99.90
52167;DHT22;38149;52.666;6.428;2022-07-24T09:15:48;23.90;99.90
52167;DHT22;38149;52.666;6.428;2022-07-24T09:18:32;24.00;99.90
52167;DHT22;38149;52.666;6.428;2022-07-24T09:21:13;23.70;99.90
52167;DHT22;38149;52.666;6.428;2022-07-24T09:23:41;24.20;99.90
52167;DHT22;38149;52.666;6.428;2022-07-24T09:26:07;24.20;99.90
52167;DHT22;38149;52.666;6.428;2022-07-24T09:28:55;24.50;99.90
52167;DHT22;38149;52.666;6.428;2022-07-24T09:31:23;24.40;99.90
52167;DHT22;38149;52.666;6.428;2022-07-24T09:33:51;24.50;99.90
52167;DHT22;38149;52.666;6.428;2022-07-24T09:36:18;24.50;99.90
52167;DHT22;38149;52.666;6.428;2022-07-24T09:38:53;24.60;99.90
52167;DHT22;38149;52.666;6.428;2022-07-24T09:44:01;24.60;99.90
52167;DHT22;38149;52.666;6.428;2022-07-24T09:53:55;24.90;99.90
52167;DHT22;38149;52.666;6.428;2022-07-24T09:56:24;24.90;99.90
52167;DHT22;38149;52.666;6.428;2022-07-24T10:01:21;24.90;99.90
52167;DHT22;38149;52.666;6.428;2022-07-24T10:03:50;25.10;99.90
52167;DHT22;38149;52.666;6.428;2022-07-24T10:06:21;25.20;99.90
52167;DHT22;38149;52.666;6.428;2022-07-24T10:08:51;25.30;99.90
52167;DHT22;38149;52.666;6.428;2022-07-24T10:11:19;25.20;99.90
52167;DHT22;38149;52.666;6.428;2022-07-24T10:13:45;25.30;99.90
52167;DHT22;38149;52.666;6.428;2022-07-24T10:18:50;25.30;99.90
52167;DHT22;38149;52.666;6.428;2022-07-24T10:21:18;25.40;99.90
52167;DHT22;38149;52.666;6.428;2022-07-24T10:26:40;25.50;99.90
52167;DHT22;38149;52.666;6.428;2022-07-24T10:31:39;25.60;99.90
52167;DHT22;38149;52.666;6.428;2022-07-24T10:34:33;25.70;99.90
52167;DHT22;38149;52.666;6.428;2022-07-24T10:37:23;25.70;99.90
52167;DHT22;38149;52.666;6.428;2022-07-24T11:25:24;26.20;99.90
52167;DHT22;38149;52.666;6.428;2022-07-24T11:28:12;26.80;99.90
52167;DHT22;38149;52.666;6.428;2022-07-24T11:30:45;26.80;99.90
52167;DHT22;38149;52.666;6.428;2022-07-24T11:33:16;26.90;99.90
52167;DHT22;38149;52.666;6.428;2022-07-24T11:35:45;26.90;99.90
52167;DHT22;38149;52.666;6.428;2022-07-24T11:40:37;27.10;99.90
52167;DHT22;38149;52.666;6.428;2022-07-24T11:43:05;27.00;99.90
52167;DHT22;38149;52.666;6.428;2022-07-24T11:45:32;27.10;99.90
52167;DHT22;38149;52.666;6.428;2022-07-24T11:47:58;27.20;99.90
52167;DHT22;38149;52.666;6.428;2022-07-24T11:50:26;27.20;99.90
52167;DHT22;38149;52.666;6.428;2022-07-24T11:52:52;27.30;99.90
52167;DHT22;38149;52.666;6.428;2022-07-24T11:55:21;27.40;99.90
52167;DHT22;38149;52.666;6.428;2022-07-24T11:57:53;27.40;99.90
52167;DHT22;38149;52.666;6.428;2022-07-24T12:00:24;27.50;99.90
52167;DHT22;38149;52.666;6.428;2022-07-24T12:05:34;27.50;99.90
52167;DHT22;38149;52.666;6.428;2022-07-24T12:08:04;27.60;99.90
52167;DHT22;38149;52.666;6.428;2022-07-24T12:10:41;27.40;99.90
52167;DHT22;38149;52.666;6.428;2022-07-24T12:18:08;27.70;99.90
52167;DHT22;38149;52.666;6.428;2022-07-24T12:30:42;27.80;99.90
52167;DHT22;38149;52.666;6.428;2022-07-24T12:36:00;27.90;99.90
52167;DHT22;38149;52.666;6.428;2022-07-24T12:41:17;27.90;99.90
52167;DHT22;38149;52.666;6.428;2022-07-24T12:43:52;28.40;99.90
52167;DHT22;38149;52.666;6.428;2022-07-24T12:59:39;28.50;99.90
52167;DHT22;38149;52.666;6.428;2022-07-24T13:07:16;28.50;99.90
52167;DHT22;38149;52.666;6.428;2022-07-24T13:56:30;29.70;99.90
52167;DHT22;38149;52.666;6.428;2022-07-24T13:58:57;29.90;99.90
52167;DHT22;38149;52.666;6.428;2022-07-24T14:01:23;30.00;99.90
52167;DHT22;38149;52.666;6.428;2022-07-24T14:03:49;29.90;99.90
52167;DHT22;38149;52.666;6.428;2022-07-24T14:06:15;29.90;99.90
52167;DHT22;38149;52.666;6.428;2022-07-24T14:08:40;30.10;99.90
52167;DHT22;38149;52.666;6.428;2022-07-24T14:11:08;30.10;99.90
52167;DHT22;38149;52.666;6.428;2022-07-24T14:16:02;30.20;99.90
52167;DHT22;38149;52.666;6.428;2022-07-24T14:18:28;30.30;99.90
52167;DHT22;38149;52.666;6.428;2022-07-24T14:20:54;30.30;99.90
52167;DHT22;38149;52.666;6.428;2022-07-24T14:23:19;30.70;99.90
52167;DHT22;38149;52.666;6.428;2022-07-24T14:25:45;30.40;99.90
52167;DHT22;38149;52.666;6.428;2022-07-24T14:28:12;30.40;99.90
52167;DHT22;38149;52.666;6.428;2022-07-24T14:30:38;30.70;99.90
52167;DHT22;38149;52.666;6.428;2022-07-24T14:42:54;30.70;98.50
52167;DHT22;38149;52.666;6.428;2022-07-24T14:45:21;30.80;99.90
52167;DHT22;38149;52.666;6.428;2022-07-24T14:47:47;30.80;99.90
52167;DHT22;38149;52.666;6.428;2022-07-24T14:50:13;30.80;99.90
52167;DHT22;38149;52.666;6.428;2022-07-24T14:52:38;30.80;99.90
52167;DHT22;38149;52.666;6.428;2022-07-24T14:55:05;30.80;97.10
52167;DHT22;38149;52.666;6.428;2022-07-24T14:57:32;30.90;98.70
52167;DHT22;38149;52.666;6.428;2022-07-24T14:59:58;31.10;99.90
52167;DHT22;38149;52.666;6.428;2022-07-24T15:02:24;31.00;99.90
52167;DHT22;38149;52.666;6.428;2022-07-24T15:04:50;31.00;99.90
52167;DHT22;38149;52.666;6.428;2022-07-24T15:07:16;31.10;99.90
52167;DHT22;38149;52.666;6.428;2022-07-24T15:09:42;31.20;99.90
52167;DHT22;38149;52.666;6.428;2022-07-24T15:17:01;31.30;99.90
52167;DHT22;38149;52.666;6.428;2022-07-24T15:19:27;31.50;99.90
52167;DHT22;38149;52.666;6.428;2022-07-24T15:21:53;31.50;94.40
52167;DHT22;38149;52.666;6.428;2022-07-24T15:24:19;31.60;94.80
52167;DHT22;38149;52.666;6.428;2022-07-24T15:26:45;31.60;95.30
52167;DHT22;38149;52.666;6.428;2022-07-24T15:29:11;31.60;97.30
52167;DHT22;38149;52.666;6.428;2022-07-24T15:31:36;31.70;99.90
52167;DHT22;38149;52.666;6.428;2022-07-24T15:34:03;31.80;99.90
52167;DHT22;38149;52.666;6.428;2022-07-24T15:38:55;31.90;91.30
52167;DHT22;38149;52.666;6.428;2022-07-24T15:41:20;32.10;94.60
52167;DHT22;38149;52.666;6.428;2022-07-24T15:43:46;32.10;96.80
52167;DHT22;38149;52.666;6.428;2022-07-24T15:46:12;32.10;92.80
52167;DHT22;38149;52.666;6.428;2022-07-24T15:48:38;32.00;93.90
52167;DHT22;38149;52.666;6.428;2022-07-24T15:51:04;32.10;94.60
52167;DHT22;38149;52.666;6.428;2022-07-24T15:53:29;32.20;96.10
52167;DHT22;38149;52.666;6.428;2022-07-24T15:55:55;32.20;96.80
52167;DHT22;38149;52.666;6.428;2022-07-24T15:58:21;31.80;97.90
52167;DHT22;38149;52.666;6.428;2022-07-24T16:00:47;32.20;97.60
52167;DHT22;38149;52.666;6.428;2022-07-24T16:15:30;32.10;99.90
52167;DHT22;38149;52.666;6.428;2022-07-24T16:25:20;32.40;99.90
52167;DHT22;38149;52.666;6.428;2022-07-24T16:40:06;32.50;99.90
52167;DHT22;38149;52.666;6.428;2022-07-24T16:42:32;32.50;99.90
52167;DHT22;38149;52.666;6.428;2022-07-24T16:45:00;32.20;99.90
52167;DHT22;38149;52.666;6.428;2022-07-24T16:47:25;32.40;99.90
52167;DHT22;38149;52.666;6.428;2022-07-24T17:11:48;31.80;83.80
52167;DHT22;38149;52.666;6.428;2022-07-24T17:14:18;31.70;87.00
52167;DHT22;38149;52.666;6.428;2022-07-24T17:16:44;31.70;90.60
52167;DHT22;38149;52.666;6.428;2022-07-24T17:19:10;31.40;91.40
52167;DHT22;38149;52.666;6.428;2022-07-24T17:21:36;31.50;86.80
52167;DHT22;38149;52.666;6.428;2022-07-24T17:24:04;31.70;93.50
52167;DHT22;38149;52.666;6.428;2022-07-24T17:26:30;31.40;97.90
52167;DHT22;38149;52.666;6.428;2022-07-24T17:31:22;31.30;91.20
52167;DHT22;38149;52.666;6.428;2022-07-24T17:33:50;31.30;94.10
52167;DHT22;38149;52.666;6.428;2022-07-24T17:36:16;31.50;96.40
52167;DHT22;38149;52.666;6.428;2022-07-24T17:41:09;30.90;99.90
52167;DHT22;38149;52.666;6.428;2022-07-24T17:48:29;30.90;98.10
52167;DHT22;38149;52.666;6.428;2022-07-24T17:50:55;30.80;94.00
52167;DHT22;38149;52.666;6.428;2022-07-24T17:53:21;31.00;97.00
52167;DHT22;38149;52.666;6.428;2022-07-24T17:55:47;30.90;97.30
52167;DHT22;38149;52.666;6.428;2022-07-24T17:58:14;30.70;98.70
52167;DHT22;38149;52.666;6.428;2022-07-24T18:00:40;30.80;98.80
52167;DHT22;38149;52.666;6.428;2022-07-24T18:05:33;30.70;99.20
52167;DHT22;38149;52.666;6.428;2022-07-24T18:12:51;30.60;94.70
52167;DHT22;38149;52.666;6.428;2022-07-24T18:15:17;30.70;94.80
52167;DHT22;38149;52.666;6.428;2022-07-24T18:22:36;30.30;85.50
52167;DHT22;38149;52.666;6.428;2022-07-24T18:25:03;30.20;85.60
52167;DHT22;38149;52.666;6.428;2022-07-24T18:27:29;30.20;85.70
52167;DHT22;38149;52.666;6.428;2022-07-24T18:29:55;30.10;85.90
52167;DHT22;38149;52.666;6.428;2022-07-24T18:32:21;30.10;86.00
52167;DHT22;38149;52.666;6.428;2022-07-24T18:34:46;30.00;86.20
52167;DHT22;38149;52.666;6.428;2022-07-24T18:37:12;30.00;86.30
52167;DHT22;38149;52.666;6.428;2022-07-24T18:39:38;30.00;86.50
52167;DHT22;38149;52.666;6.428;2022-07-24T18:42:04;29.90;86.50
52167;DHT22;38149;52.666;6.428;2022-07-24T18:44:32;29.80;86.40
52167;DHT22;38149;52.666;6.428;2022-07-24T18:46:59;29.80;86.60
52167;DHT22;38149;52.666;6.428;2022-07-24T18:51:51;29.80;86.80
52167;DHT22;38149;52.666;6.428;2022-07-24T18:54:17;29.70;87.30
52167;DHT22;38149;52.666;6.428;2022-07-24T18:56:43;29.70;87.40
52167;DHT22;38149;52.666;6.428;2022-07-24T18:59:09;29.60;87.60
52167;DHT22;38149;52.666;6.428;2022-07-24T19:01:34;28.80;87.20
52167;DHT22;38149;52.666;6.428;2022-07-24T19:04:00;29.60;88.00
52167;DHT22;38149;52.666;6.428;2022-07-24T19:06:27;29.50;88.00
52167;DHT22;38149;52.666;6.428;2022-07-24T19:08:54;29.50;88.50
52167;DHT22;38149;52.666;6.428;2022-07-24T19:11:20;29.50;88.70
52167;DHT22;38149;52.666;6.428;2022-07-24T19:13:46;29.40;89.00
52167;DHT22;38149;52.666;6.428;2022-07-24T19:16:12;29.40;89.20
52167;DHT22;38149;52.666;6.428;2022-07-24T19:18:37;29.30;89.50
52167;DHT22;38149;52.666;6.428;2022-07-24T19:21:03;29.20;89.50
52167;DHT22;38149;52.666;6.428;2022-07-24T19:23:29;29.10;89.60
52167;DHT22;38149;52.666;6.428;2022-07-24T19:25:55;29.20;89.90
52167;DHT22;38149;52.666;6.428;2022-07-24T19:28:22;29.10;90.10
52167;DHT22;38149;52.666;6.428;2022-07-24T19:30:48;29.00;90.10
52167;DHT22;38149;52.666;6.428;2022-07-24T19:35:40;29.00;90.10
52167;DHT22;38149;52.666;6.428;2022-07-24T19:38:06;28.90;90.50
52167;DHT22;38149;52.666;6.428;2022-07-24T19:40:32;28.80;90.40
52167;DHT22;38149;52.666;6.428;2022-07-24T19:45:23;28.70;90.80
52167;DHT22;38149;52.666;6.428;2022-07-24T19:47:49;28.70;91.00
52167;DHT22;38149;52.666;6.428;2022-07-24T19:50:15;28.70;91.10
52167;DHT22;38149;52.666;6.428;2022-07-24T20:02:26;28.40;91.50
52167;DHT22;38149;52.666;6.428;2022-07-24T20:04:51;28.30;91.20
52167;DHT22;38149;52.666;6.428;2022-07-24T20:07:17;28.20;91.40
52167;DHT22;38149;52.666;6.428;2022-07-24T20:09:44;28.20;91.60
52167;DHT22;38149;52.666;6.428;2022-07-24T20:12:09;28.10;91.60
52167;DHT22;38149;52.666;6.428;2022-07-24T20:14:35;28.00;91.70
52167;DHT22;38149;52.666;6.428;2022-07-24T20:17:01;28.00;91.70
52167;DHT22;38149;52.666;6.428;2022-07-24T20:19:27;27.90;91.90
52167;DHT22;38149;52.666;6.428;2022-07-24T20:21:52;27.90;91.90
52167;DHT22;38149;52.666;6.428;2022-07-24T20:29:11;27.70;92.20
52167;DHT22;38149;52.666;6.428;2022-07-24T20:31:37;27.20;95.00
52167;DHT22;38149;52.666;6.428;2022-07-24T20:41:23;27.50;92.60
52167;DHT22;38149;52.666;6.428;2022-07-24T20:43:49;27.40;92.60
52167;DHT22;38149;52.666;6.428;2022-07-24T20:46:15;27.30;93.30
52167;DHT22;38149;52.666;6.428;2022-07-24T20:48:41;27.30;93.00
52167;DHT22;38149;52.666;6.428;2022-07-24T20:51:06;27.10;93.10
52167;DHT22;38149;52.666;6.428;2022-07-24T20:53:32;27.10;93.10
52167;DHT22;38149;52.666;6.428;2022-07-24T20:55:59;27.00;94.90
52167;DHT22;38149;52.666;6.428;2022-07-24T20:58:25;26.90;93.40
52167;DHT22;38149;52.666;6.428;2022-07-24T21:03:17;27.00;95.80
52167;DHT22;38149;52.666;6.428;2022-07-24T21:05:44;27.20;96.00
52167;DHT22;38149;52.666;6.428;2022-07-24T21:08:09;26.80;99.90
52167;DHT22;38149;52.666;6.428;2022-07-24T21:10:35;26.80;99.90
52167;DHT22;38149;52.666;6.428;2022-07-24T21:13:01;26.80;99.90
52167;DHT22;38149;52.666;6.428;2022-07-24T21:15:27;26.70;96.10
52167;DHT22;38149;52.666;6.428;2022-07-24T21:20:19;26.70;98.70
52167;DHT22;38149;52.666;6.428;2022-07-24T21:22:45;26.60;98.90
52167;DHT22;38149;52.666;6.428;2022-07-24T21:25:11;26.50;99.60
52167;DHT22;38149;52.666;6.428;2022-07-24T21:30:04;26.40;99.90
52167;DHT22;38149;52.666;6.428;2022-07-24T21:34:56;26.20;94.40
52167;DHT22;38149;52.666;6.428;2022-07-24T21:37:22;26.20;94.50
52167;DHT22;38149;52.666;6.428;2022-07-24T21:39:47;26.10;94.40
52167;DHT22;38149;52.666;6.428;2022-07-24T21:42:13;26.10;94.60
52167;DHT22;38149;52.666;6.428;2022-07-24T21:44:39;26.10;94.70
52167;DHT22;38149;52.666;6.428;2022-07-24T21:47:05;26.00;94.70
52167;DHT22;38149;52.666;6.428;2022-07-24T21:49:31;26.00;94.60
52167;DHT22;38149;52.666;6.428;2022-07-24T21:51:57;25.90;94.70
52167;DHT22;38149;52.666;6.428;2022-07-24T21:54:22;25.90;94.70
52167;DHT22;38149;52.666;6.428;2022-07-24T21:56:48;25.80;94.80
52167;DHT22;38149;52.666;6.428;2022-07-24T21:59:14;25.80;94.90
52167;DHT22;38149;52.666;6.428;2022-07-24T22:01:39;25.70;94.90
52167;DHT22;38149;52.666;6.428;2022-07-24T22:04:05;25.70;95.00
52167;DHT22;38149;52.666;6.428;2022-07-24T22:06:31;25.60;95.00
52167;DHT22;38149;52.666;6.428;2022-07-24T22:08:57;25.60;95.10
52167;DHT22;38149;52.666;6.428;2022-07-24T22:11:23;25.60;95.20
52167;DHT22;38149;52.666;6.428;2022-07-24T22:13:49;25.50;95.30
52167;DHT22;38149;52.666;6.428;2022-07-24T22:16:15;25.40;95.30
52167;DHT22;38149;52.666;6.428;2022-07-24T22:18:40;25.50;95.50
52167;DHT22;38149;52.666;6.428;2022-07-24T22:21:06;25.40;95.50
52167;DHT22;38149;52.666;6.428;2022-07-24T22:23:32;25.40;95.50
52167;DHT22;38149;52.666;6.428;2022-07-24T22:25:58;25.40;95.50